sensor_id;sensor_type;location;lat;lon;timestamp;temperature;humidity
21493;DHT22;10908;50.690;4.400;2023-03-21T00:00:40;10.40;82.50
21493;DHT22;10908;50.690;4.400;2023-03-21T00:03:06;10.40;82.70
21493;DHT22;10908;50.690;4.400;2023-03-21T00:05:33;10.40;82.90
21493;DHT22;10908;50.690;4.400;2023-03-21T00:07:59;10.40;82.90
21493;DHT22;10908;50.690;4.400;2023-03-21T00:10:24;10.40;82.80
21493;DHT22;10908;50.690;4.400;2023-03-21T00:12:50;10.40;82.80
21493;DHT22;10908;50.690;4.400;2023-03-21T00:15:19;10.40;82.90
21493;DHT22;10908;50.690;4.400;2023-03-21T00:17:45;10.40;83.00
21493;DHT22;10908;50.690;4.400;2023-03-21T00:20:15;10.50;82.90
21493;DHT22;10908;50.690;4.400;2023-03-21T00:22:41;10.60;82.70
21493;DHT22;10908;50.690;4.400;2023-03-21T00:25:07;10.60;82.70
21493;DHT22;10908;50.690;4.400;2023-03-21T00:27:33;10.50;82.80
21493;DHT22;10908;50.690;4.400;2023-03-21T00:29:59;10.60;82.50
21493;DHT22;10908;50.690;4.400;2023-03-21T00:32:25;10.60;82.50
21493;DHT22;10908;50.690;4.400;2023-03-21T00:34:51;10.50;82.70
21493;DHT22;10908;50.690;4.400;2023-03-21T00:37:17;10.60;82.70
21493;DHT22;10908;50.690;4.400;2023-03-21T00:39:43;10.50;82.70
21493;DHT22;10908;50.690;4.400;2023-03-21T00:42:14;10.40;82.80
21493;DHT22;10908;50.690;4.400;2023-03-21T00:44:39;10.40;83.00
21493;DHT22;10908;50.690;4.400;2023-03-21T00:47:05;10.40;83.10
21493;DHT22;10908;50.690;4.400;2023-03-21T00:49:31;10.40;82.90
21493;DHT22;10908;50.690;4.400;2023-03-21T00:52:02;10.40;82.90
21493;DHT22;10908;50.690;4.400;2023-03-21T00:54:29;10.40;82.80
21493;DHT22;10908;50.690;4.400;2023-03-21T00:56:54;10.40;82.50
21493;DHT22;10908;50.690;4.400;2023-03-21T00:59:20;10.40;82.40
21493;DHT22;10908;50.690;4.400;2023-03-21T01:01:45;10.50;82.50
21493;DHT22;10908;50.690;4.400;2023-03-21T01:04:12;10.50;82.40
21493;DHT22;10908;50.690;4.400;2023-03-21T01:06:40;10.40;82.50
21493;DHT22;10908;50.690;4.400;2023-03-21T01:09:11;10.40;82.40
21493;DHT22;10908;50.690;4.400;2023-03-21T01:11:38;10.40;82.30
21493;DHT22;10908;50.690;4.400;2023-03-21T01:14:03;10.40;82.30
21493;DHT22;10908;50.690;4.400;2023-03-21T01:16:29;10.50;81.60
21493;DHT22;10908;50.690;4.400;2023-03-21T01:18:55;10.40;81.50
21493;DHT22;10908;50.690;4.400;2023-03-21T01:21:21;10.50;81.20
21493;DHT22;10908;50.690;4.400;2023-03-21T01:23:47;10.60;81.20
21493;DHT22;10908;50.690;4.400;2023-03-21T01:26:14;10.50;81.20
21493;DHT22;10908;50.690;4.400;2023-03-21T01:28:41;10.40;81.30
21493;DHT22;10908;50.690;4.400;2023-03-21T01:31:08;10.60;81.00
21493;DHT22;10908;50.690;4.400;2023-03-21T01:33:35;10.50;81.00
21493;DHT22;10908;50.690;4.400;2023-03-21T01:36:02;10.50;81.00
21493;DHT22;10908;50.690;4.400;2023-03-21T01:38:28;10.60;80.70
21493;DHT22;10908;50.690;4.400;2023-03-21T01:40:54;10.60;80.50
21493;DHT22;10908;50.690;4.400;2023-03-21T01:43:21;10.50;80.40
21493;DHT22;10908;50.690;4.400;2023-03-21T01:48:36;10.50;80.10
21493;DHT22;10908;50.690;4.400;2023-03-21T01:51:03;10.60;80.20
21493;DHT22;10908;50.690;4.400;2023-03-21T01:53:30;10.60;79.80
21493;DHT22;10908;50.690;4.400;2023-03-21T01:56:07;10.70;79.50
21493;DHT22;10908;50.690;4.400;2023-03-21T01:58:35;10.80;79.10
21493;DHT22;10908;50.690;4.400;2023-03-21T02:01:03;10.70;79.20
21493;DHT22;10908;50.690;4.400;2023-03-21T02:03:29;10.80;79.20
21493;DHT22;10908;50.690;4.400;2023-03-21T02:06:16;10.80;79.40
21493;DHT22;10908;50.690;4.400;2023-03-21T02:08:44;10.80;79.40
21493;DHT22;10908;50.690;4.400;2023-03-21T02:11:09;10.80;79.50
21493;DHT22;10908;50.690;4.400;2023-03-21T02:13:35;10.90;79.50
21493;DHT22;10908;50.690;4.400;2023-03-21T02:16:32;10.90;79.10
21493;DHT22;10908;50.690;4.400;2023-03-21T02:27:16;10.90;78.60
21493;DHT22;10908;50.690;4.400;2023-03-21T02:38:59;11.00;78.10
21493;DHT22;10908;50.690;4.400;2023-03-21T02:41:49;11.00;78.10
21493;DHT22;10908;50.690;4.400;2023-03-21T02:44:42;11.10;78.10
21493;DHT22;10908;50.690;4.400;2023-03-21T02:47:13;11.10;78.20
21493;DHT22;10908;50.690;4.400;2023-03-21T02:52:33;11.00;78.40
21493;DHT22;10908;50.690;4.400;2023-03-21T02:54:59;11.10;78.30
21493;DHT22;10908;50.690;4.400;2023-03-21T02:57:29;10.90;78.60
21493;DHT22;10908;50.690;4.400;2023-03-21T02:59:56;10.90;78.80
21493;DHT22;10908;50.690;4.400;2023-03-21T03:02:25;10.90;78.90
21493;DHT22;10908;50.690;4.400;2023-03-21T03:04:51;10.80;79.10
21493;DHT22;10908;50.690;4.400;2023-03-21T03:07:19;10.90;79.00
21493;DHT22;10908;50.690;4.400;2023-03-21T03:21:07;10.90;78.80
21493;DHT22;10908;50.690;4.400;2023-03-21T03:24:09;10.90;78.80
21493;DHT22;10908;50.690;4.400;2023-03-21T03:26:40;10.90;79.00
21493;DHT22;10908;50.690;4.400;2023-03-21T03:29:14;10.90;79.40
21493;DHT22;10908;50.690;4.400;2023-03-21T03:31:55;10.90;79.40
21493;DHT22;10908;50.690;4.400;2023-03-21T03:34:29;10.90;79.70
21493;DHT22;10908;50.690;4.400;2023-03-21T03:36:59;10.80;79.80
21493;DHT22;10908;50.690;4.400;2023-03-21T03:40:02;10.90;79.80
21493;DHT22;10908;50.690;4.400;2023-03-21T03:42:34;10.80;79.80
21493;DHT22;10908;50.690;4.400;2023-03-21T03:45:01;10.80;79.90
21493;DHT22;10908;50.690;4.400;2023-03-21T03:50:18;10.70;80.40
21493;DHT22;10908;50.690;4.400;2023-03-21T03:52:49;10.70;80.50
21493;DHT22;10908;50.690;4.400;2023-03-21T03:55:16;10.80;80.50
21493;DHT22;10908;50.690;4.400;2023-03-21T03:57:43;10.80;80.40
21493;DHT22;10908;50.690;4.400;2023-03-21T04:00:12;10.80;80.50
21493;DHT22;10908;50.690;4.400;2023-03-21T04:02:38;10.90;80.10
21493;DHT22;10908;50.690;4.400;2023-03-21T04:05:04;10.80;80.30
21493;DHT22;10908;50.690;4.400;2023-03-21T04:07:30;10.80;80.60
21493;DHT22;10908;50.690;4.400;2023-03-21T04:09:56;10.90;80.30
21493;DHT22;10908;50.690;4.400;2023-03-21T04:12:23;10.80;80.60
21493;DHT22;10908;50.690;4.400;2023-03-21T04:14:48;10.90;80.60
21493;DHT22;10908;50.690;4.400;2023-03-21T04:17:14;10.90;80.50
21493;DHT22;10908;50.690;4.400;2023-03-21T04:19:40;10.90;80.70
21493;DHT22;10908;50.690;4.400;2023-03-21T04:22:07;10.80;80.90
21493;DHT22;10908;50.690;4.400;2023-03-21T04:24:33;10.80;81.00
21493;DHT22;10908;50.690;4.400;2023-03-21T04:26:59;10.80;81.20
21493;DHT22;10908;50.690;4.400;2023-03-21T04:29:25;10.80;81.40
21493;DHT22;10908;50.690;4.400;2023-03-21T04:31:54;10.80;81.00
21493;DHT22;10908;50.690;4.400;2023-03-21T04:34:20;10.80;81.10
21493;DHT22;10908;50.690;4.400;2023-03-21T04:36:49;10.80;81.20
21493;DHT22;10908;50.690;4.400;2023-03-21T04:39:16;10.90;81.00
21493;DHT22;10908;50.690;4.400;2023-03-21T04:41:44;10.80;81.20
21493;DHT22;10908;50.690;4.400;2023-03-21T04:44:11;10.80;81.40
21493;DHT22;10908;50.690;4.400;2023-03-21T04:46:37;10.80;81.40
21493;DHT22;10908;50.690;4.400;2023-03-21T04:49:03;10.80;81.30
21493;DHT22;10908;50.690;4.400;2023-03-21T04:51:31;10.80;81.20
21493;DHT22;10908;50.690;4.400;2023-03-21T04:53:57;10.90;81.20
21493;DHT22;10908;50.690;4.400;2023-03-21T04:56:27;10.90;80.90
21493;DHT22;10908;50.690;4.400;2023-03-21T04:59:12;10.90;81.00
21493;DHT22;10908;50.690;4.400;2023-03-21T05:01:38;10.90;80.90
21493;DHT22;10908;50.690;4.400;2023-03-21T05:04:06;10.90;80.80
21493;DHT22;10908;50.690;4.400;2023-03-21T05:06:32;10.80;81.10
21493;DHT22;10908;50.690;4.400;2023-03-21T05:08:59;10.80;81.60
21493;DHT22;10908;50.690;4.400;2023-03-21T05:11:27;10.80;81.70
21493;DHT22;10908;50.690;4.400;2023-03-21T05:13:55;10.80;81.40
21493;DHT22;10908;50.690;4.400;2023-03-21T05:16:21;10.80;81.40
21493;DHT22;10908;50.690;4.400;2023-03-21T05:18:51;10.80;81.40
21493;DHT22;10908;50.690;4.400;2023-03-21T05:21:19;10.80;81.50
21493;DHT22;10908;50.690;4.400;2023-03-21T05:23:45;10.80;81.30
21493;DHT22;10908;50.690;4.400;2023-03-21T05:26:20;10.80;81.30
21493;DHT22;10908;50.690;4.400;2023-03-21T05:28:47;10.90;81.00
21493;DHT22;10908;50.690;4.400;2023-03-21T05:31:16;10.80;80.90
21493;DHT22;10908;50.690;4.400;2023-03-21T05:33:43;10.90;80.70
21493;DHT22;10908;50.690;4.400;2023-03-21T05:36:10;10.90;80.70
21493;DHT22;10908;50.690;4.400;2023-03-21T05:38:37;10.90;80.50
21493;DHT22;10908;50.690;4.400;2023-03-21T05:41:03;10.90;80.50
21493;DHT22;10908;50.690;4.400;2023-03-21T05:43:28;10.90;80.30
21493;DHT22;10908;50.690;4.400;2023-03-21T05:45:54;10.90;80.30
21493;DHT22;10908;50.690;4.400;2023-03-21T05:48:20;10.90;80.10
21493;DHT22;10908;50.690;4.400;2023-03-21T05:50:45;10.90;80.20
21493;DHT22;10908;50.690;4.400;2023-03-21T05:53:11;10.90;80.10
21493;DHT22;10908;50.690;4.400;2023-03-21T05:55:37;10.90;79.90
21493;DHT22;10908;50.690;4.400;2023-03-21T05:58:03;10.90;80.00
21493;DHT22;10908;50.690;4.400;2023-03-21T06:00:29;11.00;80.00
21493;DHT22;10908;50.690;4.400;2023-03-21T06:02:55;11.00;80.30
21493;DHT22;10908;50.690;4.400;2023-03-21T06:05:21;11.10;80.50
21493;DHT22;10908;50.690;4.400;2023-03-21T06:07:47;11.00;80.80
21493;DHT22;10908;50.690;4.400;2023-03-21T06:10:13;10.90;81.20
21493;DHT22;10908;50.690;4.400;2023-03-21T06:12:38;10.90;81.00
21493;DHT22;10908;50.690;4.400;2023-03-21T06:15:05;10.90;80.90
21493;DHT22;10908;50.690;4.400;2023-03-21T06:17:33;10.90;81.00
21493;DHT22;10908;50.690;4.400;2023-03-21T06:19:58;10.90;80.60
21493;DHT22;10908;50.690;4.400;2023-03-21T06:22:26;10.90;80.50
21493;DHT22;10908;50.690;4.400;2023-03-21T06:24:52;10.90;79.90
21493;DHT22;10908;50.690;4.400;2023-03-21T06:27:18;11.00;79.40
21493;DHT22;10908;50.690;4.400;2023-03-21T06:29:43;11.00;78.70
21493;DHT22;10908;50.690;4.400;2023-03-21T06:32:11;11.00;78.90
21493;DHT22;10908;50.690;4.400;2023-03-21T06:34:36;10.90;79.10
21493;DHT22;10908;50.690;4.400;2023-03-21T06:37:02;10.90;79.40
21493;DHT22;10908;50.690;4.400;2023-03-21T06:39:29;10.90;79.70
21493;DHT22;10908;50.690;4.400;2023-03-21T06:41:56;10.90;80.20
21493;DHT22;10908;50.690;4.400;2023-03-21T06:44:22;10.90;80.60
21493;DHT22;10908;50.690;4.400;2023-03-21T06:46:49;10.90;81.00
21493;DHT22;10908;50.690;4.400;2023-03-21T06:49:15;10.90;80.90
21493;DHT22;10908;50.690;4.400;2023-03-21T06:51:41;10.80;81.00
21493;DHT22;10908;50.690;4.400;2023-03-21T06:54:07;10.80;80.80
21493;DHT22;10908;50.690;4.400;2023-03-21T06:56:32;10.80;80.60
21493;DHT22;10908;50.690;4.400;2023-03-21T06:58:58;10.80;80.10
21493;DHT22;10908;50.690;4.400;2023-03-21T07:01:24;10.70;80.30
21493;DHT22;10908;50.690;4.400;2023-03-21T07:03:54;10.80;80.20
21493;DHT22;10908;50.690;4.400;2023-03-21T07:06:22;10.80;80.20
21493;DHT22;10908;50.690;4.400;2023-03-21T07:08:51;10.80;79.80
21493;DHT22;10908;50.690;4.400;2023-03-21T07:11:18;10.80;79.80
21493;DHT22;10908;50.690;4.400;2023-03-21T07:13:44;10.80;79.70
21493;DHT22;10908;50.690;4.400;2023-03-21T07:16:10;10.80;79.70
21493;DHT22;10908;50.690;4.400;2023-03-21T07:18:36;10.80;79.70
21493;DHT22;10908;50.690;4.400;2023-03-21T07:21:03;10.80;79.60
21493;DHT22;10908;50.690;4.400;2023-03-21T07:23:28;10.80;80.10
21493;DHT22;10908;50.690;4.400;2023-03-21T07:25:55;10.70;80.80
21493;DHT22;10908;50.690;4.400;2023-03-21T07:28:21;10.80;80.90
21493;DHT22;10908;50.690;4.400;2023-03-21T07:31:14;10.80;80.90
21493;DHT22;10908;50.690;4.400;2023-03-21T07:33:38;10.90;81.10
21493;DHT22;10908;50.690;4.400;2023-03-21T07:36:08;11.00;80.80
21493;DHT22;10908;50.690;4.400;2023-03-21T07:38:34;11.00;81.10
21493;DHT22;10908;50.690;4.400;2023-03-21T07:40:59;11.10;81.10
21493;DHT22;10908;50.690;4.400;2023-03-21T07:43:25;11.10;81.40
21493;DHT22;10908;50.690;4.400;2023-03-21T07:45:55;11.20;81.20
21493;DHT22;10908;50.690;4.400;2023-03-21T07:48:21;11.20;81.30
21493;DHT22;10908;50.690;4.400;2023-03-21T07:50:48;11.30;81.20
21493;DHT22;10908;50.690;4.400;2023-03-21T07:53:13;11.30;80.90
21493;DHT22;10908;50.690;4.400;2023-03-21T07:55:39;11.30;80.80
21493;DHT22;10908;50.690;4.400;2023-03-21T07:58:05;11.40;80.60
21493;DHT22;10908;50.690;4.400;2023-03-21T08:00:31;11.40;80.40
21493;DHT22;10908;50.690;4.400;2023-03-21T08:02:57;11.40;80.50
21493;DHT22;10908;50.690;4.400;2023-03-21T08:05:34;11.40;80.30
21493;DHT22;10908;50.690;4.400;2023-03-21T08:08:01;11.30;80.20
21493;DHT22;10908;50.690;4.400;2023-03-21T08:10:27;11.20;79.90
21493;DHT22;10908;50.690;4.400;2023-03-21T08:12:53;11.20;79.90
21493;DHT22;10908;50.690;4.400;2023-03-21T08:15:19;11.20;79.60
21493;DHT22;10908;50.690;4.400;2023-03-21T08:17:44;11.20;79.90
21493;DHT22;10908;50.690;4.400;2023-03-21T08:20:13;11.30;79.30
21493;DHT22;10908;50.690;4.400;2023-03-21T08:22:40;11.30;79.00
21493;DHT22;10908;50.690;4.400;2023-03-21T08:25:07;11.10;79.30
21493;DHT22;10908;50.690;4.400;2023-03-21T08:27:33;11.20;79.40
21493;DHT22;10908;50.690;4.400;2023-03-21T08:29:59;11.10;79.90
21493;DHT22;10908;50.690;4.400;2023-03-21T08:32:26;11.10;80.10
21493;DHT22;10908;50.690;4.400;2023-03-21T08:34:58;11.10;80.10
21493;DHT22;10908;50.690;4.400;2023-03-21T08:37:24;11.10;80.40
21493;DHT22;10908;50.690;4.400;2023-03-21T08:39:51;11.10;80.00
21493;DHT22;10908;50.690;4.400;2023-03-21T08:42:17;11.20;79.90
21493;DHT22;10908;50.690;4.400;2023-03-21T08:44:43;11.20;79.80
21493;DHT22;10908;50.690;4.400;2023-03-21T08:47:10;11.20;79.70
21493;DHT22;10908;50.690;4.400;2023-03-21T08:49:35;11.30;79.60
21493;DHT22;10908;50.690;4.400;2023-03-21T08:52:01;11.40;79.10
21493;DHT22;10908;50.690;4.400;2023-03-21T08:54:27;11.40;79.10
21493;DHT22;10908;50.690;4.400;2023-03-21T08:56:53;11.50;78.90
21493;DHT22;10908;50.690;4.400;2023-03-21T08:59:19;11.50;78.90
21493;DHT22;10908;50.690;4.400;2023-03-21T09:01:45;11.60;78.50
21493;DHT22;10908;50.690;4.400;2023-03-21T09:04:12;11.70;78.20
21493;DHT22;10908;50.690;4.400;2023-03-21T09:06:38;11.80;77.50
21493;DHT22;10908;50.690;4.400;2023-03-21T09:09:10;11.80;77.70
21493;DHT22;10908;50.690;4.400;2023-03-21T09:11:37;11.90;77.90
21493;DHT22;10908;50.690;4.400;2023-03-21T09:14:03;11.80;77.40
21493;DHT22;10908;50.690;4.400;2023-03-21T09:16:28;11.70;77.70
21493;DHT22;10908;50.690;4.400;2023-03-21T09:18:54;11.80;78.10
21493;DHT22;10908;50.690;4.400;2023-03-21T09:21:22;11.80;78.00
21493;DHT22;10908;50.690;4.400;2023-03-21T09:23:49;11.80;77.30
21493;DHT22;10908;50.690;4.400;2023-03-21T09:26:20;11.80;77.30
21493;DHT22;10908;50.690;4.400;2023-03-21T09:28:46;11.80;76.60
21493;DHT22;10908;50.690;4.400;2023-03-21T09:31:13;11.80;77.40
21493;DHT22;10908;50.690;4.400;2023-03-21T09:33:42;11.80;76.90
21493;DHT22;10908;50.690;4.400;2023-03-21T09:36:09;11.80;77.10
21493;DHT22;10908;50.690;4.400;2023-03-21T09:38:36;11.80;77.00
21493;DHT22;10908;50.690;4.400;2023-03-21T09:46:49;12.10;77.20
21493;DHT22;10908;50.690;4.400;2023-03-21T09:49:39;12.20;76.00
21493;DHT22;10908;50.690;4.400;2023-03-21T09:52:17;12.30;75.20
21493;DHT22;10908;50.690;4.400;2023-03-21T09:54:44;12.40;73.80
21493;DHT22;10908;50.690;4.400;2023-03-21T09:57:37;12.50;73.40
21493;DHT22;10908;50.690;4.400;2023-03-21T10:00:09;12.50;73.00
21493;DHT22;10908;50.690;4.400;2023-03-21T10:02:47;12.60;73.70
21493;DHT22;10908;50.690;4.400;2023-03-21T10:05:20;12.60;72.90
21493;DHT22;10908;50.690;4.400;2023-03-21T10:08:13;12.70;72.90
21493;DHT22;10908;50.690;4.400;2023-03-21T10:10:46;12.80;72.30
21493;DHT22;10908;50.690;4.400;2023-03-21T10:13:18;12.90;72.20
21493;DHT22;10908;50.690;4.400;2023-03-21T10:15:45;12.90;71.80
21493;DHT22;10908;50.690;4.400;2023-03-21T10:18:25;12.80;71.90
21493;DHT22;10908;50.690;4.400;2023-03-21T10:20:52;12.80;72.40
21493;DHT22;10908;50.690;4.400;2023-03-21T10:23:21;12.90;71.70
21493;DHT22;10908;50.690;4.400;2023-03-21T10:25:50;13.00;71.70
21493;DHT22;10908;50.690;4.400;2023-03-21T10:28:20;12.90;71.10
21493;DHT22;10908;50.690;4.400;2023-03-21T10:30:58;12.90;71.50
21493;DHT22;10908;50.690;4.400;2023-03-21T10:33:27;13.10;71.90
21493;DHT22;10908;50.690;4.400;2023-03-21T10:35:59;13.20;71.00
21493;DHT22;10908;50.690;4.400;2023-03-21T10:38:26;13.40;70.50
21493;DHT22;10908;50.690;4.400;2023-03-21T10:40:53;13.40;70.60
21493;DHT22;10908;50.690;4.400;2023-03-21T10:45:51;13.60;69.80
21493;DHT22;10908;50.690;4.400;2023-03-21T10:48:17;13.50;69.60
21493;DHT22;10908;50.690;4.400;2023-03-21T10:50:47;13.50;69.80
21493;DHT22;10908;50.690;4.400;2023-03-21T10:53:19;13.50;69.50
21493;DHT22;10908;50.690;4.400;2023-03-21T10:55:49;13.60;70.10
21493;DHT22;10908;50.690;4.400;2023-03-21T10:58:24;13.80;69.30
21493;DHT22;10908;50.690;4.400;2023-03-21T11:00:56;13.90;68.90
21493;DHT22;10908;50.690;4.400;2023-03-21T11:03:37;14.10;68.70
21493;DHT22;10908;50.690;4.400;2023-03-21T11:08:50;14.10;68.30
21493;DHT22;10908;50.690;4.400;2023-03-21T11:11:27;14.20;69.50
21493;DHT22;10908;50.690;4.400;2023-03-21T11:14:05;14.10;68.00
21493;DHT22;10908;50.690;4.400;2023-03-21T11:16:42;14.10;68.70
21493;DHT22;10908;50.690;4.400;2023-03-21T11:19:19;14.10;68.70
21493;DHT22;10908;50.690;4.400;2023-03-21T11:21:45;14.10;68.80
21493;DHT22;10908;50.690;4.400;2023-03-21T11:24:16;14.10;68.60
21493;DHT22;10908;50.690;4.400;2023-03-21T11:26:47;14.30;69.50
21493;DHT22;10908;50.690;4.400;2023-03-21T11:29:28;14.40;68.00
21493;DHT22;10908;50.690;4.400;2023-03-21T11:32:00;14.30;67.70
21493;DHT22;10908;50.690;4.400;2023-03-21T11:34:32;14.20;67.70
21493;DHT22;10908;50.690;4.400;2023-03-21T11:37:03;14.20;67.90
21493;DHT22;10908;50.690;4.400;2023-03-21T11:39:30;14.20;67.70
21493;DHT22;10908;50.690;4.400;2023-03-21T11:41:56;14.20;68.60
21493;DHT22;10908;50.690;4.400;2023-03-21T11:44:26;14.30;68.90
21493;DHT22;10908;50.690;4.400;2023-03-21T11:46:51;14.50;68.70
21493;DHT22;10908;50.690;4.400;2023-03-21T11:49:17;14.60;68.00
21493;DHT22;10908;50.690;4.400;2023-03-21T11:52:04;14.40;67.00
21493;DHT22;10908;50.690;4.400;2023-03-21T11:54:53;14.30;67.90
21493;DHT22;10908;50.690;4.400;2023-03-21T12:00:20;14.40;68.00
21493;DHT22;10908;50.690;4.400;2023-03-21T12:03:03;14.50;68.60
21493;DHT22;10908;50.690;4.400;2023-03-21T12:05:44;14.60;68.20
21493;DHT22;10908;50.690;4.400;2023-03-21T12:11:02;14.60;67.20
21493;DHT22;10908;50.690;4.400;2023-03-21T12:29:54;15.20;66.20
21493;DHT22;10908;50.690;4.400;2023-03-21T12:35:51;14.90;66.70
21493;DHT22;10908;50.690;4.400;2023-03-21T12:38:43;14.90;67.10
21493;DHT22;10908;50.690;4.400;2023-03-21T12:41:23;14.90;66.90
21493;DHT22;10908;50.690;4.400;2023-03-21T12:43:59;15.00;67.00
21493;DHT22;10908;50.690;4.400;2023-03-21T12:46:33;15.10;67.20
21493;DHT22;10908;50.690;4.400;2023-03-21T12:51:41;15.50;66.50
21493;DHT22;10908;50.690;4.400;2023-03-21T12:54:25;15.60;66.70
21493;DHT22;10908;50.690;4.400;2023-03-21T12:57:07;15.30;65.80
21493;DHT22;10908;50.690;4.400;2023-03-21T13:02:32;15.00;66.80
21493;DHT22;10908;50.690;4.400;2023-03-21T13:05:28;15.00;67.00
21493;DHT22;10908;50.690;4.400;2023-03-21T13:08:00;14.90;67.00
21493;DHT22;10908;50.690;4.400;2023-03-21T13:10:29;15.10;67.50
21493;DHT22;10908;50.690;4.400;2023-03-21T13:18:32;15.20;67.70
21493;DHT22;10908;50.690;4.400;2023-03-21T13:21:07;15.30;66.90
21493;DHT22;10908;50.690;4.400;2023-03-21T13:23:37;15.40;66.30
21493;DHT22;10908;50.690;4.400;2023-03-21T13:26:09;15.40;66.20
21493;DHT22;10908;50.690;4.400;2023-03-21T13:28:39;15.40;65.70
21493;DHT22;10908;50.690;4.400;2023-03-21T13:31:19;15.50;66.80
21493;DHT22;10908;50.690;4.400;2023-03-21T13:33:48;15.60;66.00
21493;DHT22;10908;50.690;4.400;2023-03-21T13:36:17;15.60;65.70
21493;DHT22;10908;50.690;4.400;2023-03-21T13:38:52;15.40;65.20
21493;DHT22;10908;50.690;4.400;2023-03-21T13:41:26;15.40;65.80
21493;DHT22;10908;50.690;4.400;2023-03-21T13:44:47;15.50;66.30
21493;DHT22;10908;50.690;4.400;2023-03-21T13:46:59;15.70;66.70
21493;DHT22;10908;50.690;4.400;2023-03-21T13:49:29;15.60;65.80
21493;DHT22;10908;50.690;4.400;2023-03-21T13:51:57;15.50;65.70
21493;DHT22;10908;50.690;4.400;2023-03-21T13:54:43;15.50;66.50
21493;DHT22;10908;50.690;4.400;2023-03-21T13:57:34;15.50;66.00
21493;DHT22;10908;50.690;4.400;2023-03-21T14:00:22;15.60;66.70
21493;DHT22;10908;50.690;4.400;2023-03-21T14:03:12;15.70;66.90
21493;DHT22;10908;50.690;4.400;2023-03-21T14:05:41;15.60;66.30
21493;DHT22;10908;50.690;4.400;2023-03-21T14:08:16;15.70;67.40
21493;DHT22;10908;50.690;4.400;2023-03-21T14:10:44;15.70;66.70
21493;DHT22;10908;50.690;4.400;2023-03-21T14:13:16;15.60;67.40
21493;DHT22;10908;50.690;4.400;2023-03-21T14:15:46;15.60;67.10
21493;DHT22;10908;50.690;4.400;2023-03-21T14:18:19;15.40;67.30
21493;DHT22;10908;50.690;4.400;2023-03-21T14:20:50;15.30;67.50
21493;DHT22;10908;50.690;4.400;2023-03-21T14:23:16;15.20;68.20
21493;DHT22;10908;50.690;4.400;2023-03-21T14:25:43;15.10;67.90
21493;DHT22;10908;50.690;4.400;2023-03-21T14:28:20;14.90;68.60
21493;DHT22;10908;50.690;4.400;2023-03-21T14:30:53;14.80;69.00
21493;DHT22;10908;50.690;4.400;2023-03-21T14:35:46;14.60;69.50
21493;DHT22;10908;50.690;4.400;2023-03-21T14:38:24;14.40;70.30
21493;DHT22;10908;50.690;4.400;2023-03-21T14:40:53;14.30;70.70
21493;DHT22;10908;50.690;4.400;2023-03-21T14:43:21;14.30;71.00
21493;DHT22;10908;50.690;4.400;2023-03-21T14:45:50;14.20;71.40
21493;DHT22;10908;50.690;4.400;2023-03-21T14:48:17;14.00;72.80
21493;DHT22;10908;50.690;4.400;2023-03-21T14:50:47;13.90;73.70
21493;DHT22;10908;50.690;4.400;2023-03-21T14:53:24;13.80;75.00
21493;DHT22;10908;50.690;4.400;2023-03-21T14:56:21;13.70;76.10
21493;DHT22;10908;50.690;4.400;2023-03-21T14:58:47;13.70;76.80
21493;DHT22;10908;50.690;4.400;2023-03-21T15:01:19;13.70;77.20
21493;DHT22;10908;50.690;4.400;2023-03-21T15:03:49;13.70;77.20
21493;DHT22;10908;50.690;4.400;2023-03-21T15:06:15;13.60;77.90
21493;DHT22;10908;50.690;4.400;2023-03-21T15:08:57;13.60;78.60
21493;DHT22;10908;50.690;4.400;2023-03-21T15:11:38;13.50;80.40
21493;DHT22;10908;50.690;4.400;2023-03-21T15:14:06;13.40;81.70
21493;DHT22;10908;50.690;4.400;2023-03-21T15:16:33;13.50;82.50
21493;DHT22;10908;50.690;4.400;2023-03-21T15:19:00;13.50;83.00
21493;DHT22;10908;50.690;4.400;2023-03-21T15:21:47;13.60;83.00
21493;DHT22;10908;50.690;4.400;2023-03-21T15:24:29;13.60;82.70
21493;DHT22;10908;50.690;4.400;2023-03-21T15:27:00;13.50;82.40
21493;DHT22;10908;50.690;4.400;2023-03-21T15:29:27;13.40;82.50
21493;DHT22;10908;50.690;4.400;2023-03-21T15:31:53;13.40;83.00
21493;DHT22;10908;50.690;4.400;2023-03-21T15:34:27;13.40;83.30
21493;DHT22;10908;50.690;4.400;2023-03-21T15:37:00;13.30;83.80
21493;DHT22;10908;50.690;4.400;2023-03-21T15:39:29;13.20;84.20
21493;DHT22;10908;50.690;4.400;2023-03-21T15:55:34;13.10;85.00
21493;DHT22;10908;50.690;4.400;2023-03-21T15:58:11;13.20;85.10
21493;DHT22;10908;50.690;4.400;2023-03-21T16:00:39;13.20;85.40
21493;DHT22;10908;50.690;4.400;2023-03-21T16:03:12;13.20;85.30
21493;DHT22;10908;50.690;4.400;2023-03-21T16:05:41;13.30;85.30
21493;DHT22;10908;50.690;4.400;2023-03-21T16:08:21;13.20;85.20
21493;DHT22;10908;50.690;4.400;2023-03-21T16:10:47;13.30;84.90
21493;DHT22;10908;50.690;4.400;2023-03-21T16:13:15;13.30;84.70
21493;DHT22;10908;50.690;4.400;2023-03-21T16:15:42;13.40;84.50
21493;DHT22;10908;50.690;4.400;2023-03-21T16:18:11;13.40;84.00
21493;DHT22;10908;50.690;4.400;2023-03-21T16:20:41;13.40;83.80
21493;DHT22;10908;50.690;4.400;2023-03-21T16:23:10;13.40;83.70
21493;DHT22;10908;50.690;4.400;2023-03-21T16:25:36;13.40;83.70
21493;DHT22;10908;50.690;4.400;2023-03-21T16:28:02;13.30;83.50
21493;DHT22;10908;50.690;4.400;2023-03-21T16:30:28;13.40;84.20
21493;DHT22;10908;50.690;4.400;2023-03-21T16:32:54;13.40;84.60
21493;DHT22;10908;50.690;4.400;2023-03-21T16:35:20;13.30;84.80
21493;DHT22;10908;50.690;4.400;2023-03-21T16:37:46;13.30;85.00
21493;DHT22;10908;50.690;4.400;2023-03-21T16:40:30;13.20;85.00
21493;DHT22;10908;50.690;4.400;2023-03-21T16:42:57;13.20;85.00
21493;DHT22;10908;50.690;4.400;2023-03-21T16:45:22;13.20;85.10
21493;DHT22;10908;50.690;4.400;2023-03-21T16:47:48;13.30;85.20
21493;DHT22;10908;50.690;4.400;2023-03-21T16:52:50;13.20;84.70
21493;DHT22;10908;50.690;4.400;2023-03-21T16:55:16;13.20;84.80
21493;DHT22;10908;50.690;4.400;2023-03-21T16:57:43;13.10;84.50
21493;DHT22;10908;50.690;4.400;2023-03-21T17:00:12;13.10;84.40
21493;DHT22;10908;50.690;4.400;2023-03-21T17:02:38;13.10;84.50
21493;DHT22;10908;50.690;4.400;2023-03-21T17:05:04;13.00;84.40
21493;DHT22;10908;50.690;4.400;2023-03-21T17:07:32;12.90;84.60
21493;DHT22;10908;50.690;4.400;2023-03-21T17:09:58;12.90;84.10
21493;DHT22;10908;50.690;4.400;2023-03-21T17:12:23;12.90;84.10
21493;DHT22;10908;50.690;4.400;2023-03-21T17:14:49;12.90;83.90
21493;DHT22;10908;50.690;4.400;2023-03-21T17:17:16;12.90;84.00
21493;DHT22;10908;50.690;4.400;2023-03-21T17:19:42;12.90;84.00
21493;DHT22;10908;50.690;4.400;2023-03-21T17:22:08;12.90;83.80
21493;DHT22;10908;50.690;4.400;2023-03-21T17:24:34;12.90;83.80
21493;DHT22;10908;50.690;4.400;2023-03-21T17:27:02;12.90;83.90
21493;DHT22;10908;50.690;4.400;2023-03-21T17:29:29;12.80;83.90